PCM876 KBUR-KOXR
Flight info
| Callsign | PCM876 |
|---|---|
| Flight time | 0h 17m |
| Altitude | 6000 |
| Route | VNY3 FIM |
| Aircraft | C208/L-SDF/C |
Departure
| Time | 2026-04-28 16:30 |
|---|---|
| Airport | Hollywood Burbank/Bob Hope Airport (KBUR) |
Arrival
| Time | 2026-04-28 16:48 |
|---|---|
| Airport | Oxnard Airport (KOXR) |
| Time | Latitude | Longitude | Altitude | Speed | Heading |
|---|---|---|---|---|---|
| 2026-04-28 16:22 | 34.19614 | -118.35958 | 706 ft | 0 kts | 180° |
| 2026-04-28 16:27 | 34.19617 | -118.35937 | 706 ft | 8 kts | 26° |
| 2026-04-28 16:28 | 34.19672 | -118.35989 | 698 ft | 15 kts | 281° |
| 2026-04-28 16:28 | 34.19679 | -118.36091 | 706 ft | 22 kts | 272° |
| 2026-04-28 16:28 | 34.19682 | -118.36371 | 706 ft | 26 kts | 273° |
| 2026-04-28 16:28 | 34.19692 | -118.36585 | 706 ft | 25 kts | 273° |
| 2026-04-28 16:29 | 34.19772 | -118.36884 | 702 ft | 12 kts | 39° |
| 2026-04-28 16:29 | 34.19792 | -118.36622 | 706 ft | 53 kts | 91° |
| 2026-04-28 16:30 | 34.19782 | -118.35967 | 760 ft | 92 kts | 88° |
| 2026-04-28 16:30 | 34.19769 | -118.35212 | 1084 ft | 95 kts | 104° |
| 2026-04-28 16:30 | 34.19229 | -118.34748 | 1317 ft | 108 kts | 186° |
| 2026-04-28 16:30 | 34.18640 | -118.35247 | 1730 ft | 105 kts | 226° |
| 2026-04-28 16:31 | 34.18128 | -118.35903 | 2086 ft | 110 kts | 240° |
| 2026-04-28 16:31 | 34.18089 | -118.36789 | 2471 ft | 107 kts | 277° |
| 2026-04-28 16:31 | 34.18130 | -118.37702 | 2822 ft | 110 kts | 272° |
| 2026-04-28 16:31 | 34.18168 | -118.38626 | 3175 ft | 111 kts | 272° |
| 2026-04-28 16:32 | 34.18203 | -118.39547 | 3527 ft | 112 kts | 272° |
| 2026-04-28 16:32 | 34.18279 | -118.41451 | 4229 ft | 115 kts | 271° |
| 2026-04-28 16:32 | 34.18314 | -118.42409 | 4558 ft | 115 kts | 271° |
| 2026-04-28 16:33 | 34.18351 | -118.43380 | 4859 ft | 116 kts | 271° |
| 2026-04-28 16:33 | 34.18363 | -118.43709 | 4953 ft | 117 kts | 271° |
| 2026-04-28 16:33 | 34.18423 | -118.45345 | 5475 ft | 118 kts | 272° |
| 2026-04-28 16:33 | 34.18459 | -118.46334 | 5781 ft | 119 kts | 271° |
| 2026-04-28 16:34 | 34.18495 | -118.47351 | 5991 ft | 128 kts | 271° |
| 2026-04-28 16:34 | 34.18537 | -118.48520 | 6006 ft | 149 kts | 272° |
| 2026-04-28 16:34 | 34.18589 | -118.49829 | 6004 ft | 162 kts | 272° |
| 2026-04-28 16:34 | 34.18641 | -118.51219 | 6007 ft | 170 kts | 272° |
| 2026-04-28 16:35 | 34.18693 | -118.52655 | 6003 ft | 172 kts | 272° |
| 2026-04-28 16:35 | 34.18746 | -118.54101 | 6002 ft | 173 kts | 272° |
| 2026-04-28 16:35 | 34.18796 | -118.55554 | 6001 ft | 174 kts | 272° |
| 2026-04-28 16:35 | 34.18847 | -118.57015 | 5999 ft | 174 kts | 272° |
| 2026-04-28 16:36 | 34.18882 | -118.57984 | 6002 ft | 174 kts | 272° |
| 2026-04-28 16:36 | 34.18933 | -118.59450 | 6001 ft | 174 kts | 272° |
| 2026-04-28 16:36 | 34.18985 | -118.60904 | 6001 ft | 174 kts | 272° |
| 2026-04-28 16:36 | 34.19036 | -118.62363 | 6001 ft | 174 kts | 272° |
| 2026-04-28 16:37 | 34.19086 | -118.63827 | 5999 ft | 175 kts | 272° |
| 2026-04-28 16:37 | 34.19137 | -118.65290 | 5999 ft | 174 kts | 272° |
| 2026-04-28 16:37 | 34.19189 | -118.66755 | 5997 ft | 175 kts | 272° |
| 2026-04-28 16:38 | 34.19287 | -118.69674 | 5997 ft | 174 kts | 272° |
| 2026-04-28 16:38 | 34.19339 | -118.71133 | 5995 ft | 173 kts | 272° |
| 2026-04-28 16:38 | 34.19388 | -118.72585 | 5999 ft | 173 kts | 272° |
| 2026-04-28 16:38 | 34.19439 | -118.74038 | 5997 ft | 173 kts | 272° |
| 2026-04-28 16:39 | 34.19486 | -118.75492 | 5997 ft | 174 kts | 272° |
| 2026-04-28 16:39 | 34.19536 | -118.76951 | 5996 ft | 174 kts | 272° |
| 2026-04-28 16:39 | 34.19574 | -118.78408 | 5996 ft | 174 kts | 271° |
| 2026-04-28 16:39 | 34.19579 | -118.79867 | 5824 ft | 172 kts | 270° |
| 2026-04-28 16:40 | 34.19644 | -118.81283 | 5562 ft | 167 kts | 275° |
| 2026-04-28 16:40 | 34.19738 | -118.82662 | 5307 ft | 164 kts | 274° |
| 2026-04-28 16:40 | 34.19764 | -118.84032 | 5051 ft | 162 kts | 268° |
| 2026-04-28 16:40 | 34.19714 | -118.85390 | 4797 ft | 161 kts | 266° |
| 2026-04-28 16:41 | 34.19660 | -118.86725 | 4549 ft | 161 kts | 267° |
| 2026-04-28 16:41 | 34.19607 | -118.88071 | 4302 ft | 160 kts | 267° |
| 2026-04-28 16:41 | 34.19556 | -118.89411 | 4054 ft | 159 kts | 266° |
| 2026-04-28 16:41 | 34.19504 | -118.90751 | 3803 ft | 160 kts | 267° |
| 2026-04-28 16:42 | 34.19552 | -118.92080 | 3543 ft | 160 kts | 287° |
| 2026-04-28 16:42 | 34.19830 | -118.93376 | 3295 ft | 159 kts | 272° |
| 2026-04-28 16:42 | 34.19852 | -118.94688 | 3203 ft | 150 kts | 270° |
| 2026-04-28 16:42 | 34.19874 | -118.95919 | 3196 ft | 144 kts | 270° |
| 2026-04-28 16:43 | 34.19891 | -118.97109 | 3190 ft | 140 kts | 270° |
| 2026-04-28 16:43 | 34.19902 | -118.98279 | 3191 ft | 139 kts | 270° |
| 2026-04-28 16:43 | 34.19912 | -118.99444 | 3193 ft | 138 kts | 270° |
| 2026-04-28 16:43 | 34.19924 | -119.00606 | 3147 ft | 140 kts | 270° |
| 2026-04-28 16:44 | 34.19934 | -119.01824 | 2961 ft | 149 kts | 269° |
| 2026-04-28 16:44 | 34.19941 | -119.03098 | 2764 ft | 154 kts | 270° |
| 2026-04-28 16:44 | 34.19953 | -119.04391 | 2566 ft | 155 kts | 269° |
| 2026-04-28 16:44 | 34.19958 | -119.05693 | 2353 ft | 155 kts | 270° |
| 2026-04-28 16:45 | 34.19974 | -119.07005 | 2148 ft | 156 kts | 270° |
| 2026-04-28 16:45 | 34.19980 | -119.08311 | 1939 ft | 155 kts | 270° |
| 2026-04-28 16:45 | 34.19992 | -119.09609 | 1731 ft | 155 kts | 270° |
| 2026-04-28 16:45 | 34.20003 | -119.10905 | 1524 ft | 154 kts | 270° |
| 2026-04-28 16:46 | 34.20010 | -119.12199 | 1323 ft | 153 kts | 270° |
| 2026-04-28 16:46 | 34.20021 | -119.13483 | 1119 ft | 153 kts | 270° |
| 2026-04-28 16:46 | 34.20031 | -119.14769 | 915 ft | 154 kts | 271° |
| 2026-04-28 16:46 | 34.20039 | -119.16060 | 715 ft | 154 kts | 271° |
| 2026-04-28 16:47 | 34.20052 | -119.17343 | 496 ft | 147 kts | 272° |
| 2026-04-28 16:47 | 34.20069 | -119.18494 | 250 ft | 129 kts | 271° |
| 2026-04-28 16:47 | 34.20073 | -119.19496 | 87 ft | 110 kts | 270° |
| 2026-04-28 16:47 | 34.20080 | -119.20309 | 49 ft | 68 kts | 273° |
| 2026-04-28 16:48 | 34.20079 | -119.20492 | 49 ft | 0 kts | 251° |